createdAt,value
2022-09-11T00:01:19.337Z,12.80
2022-09-11T00:03:48.609Z,12.84
2022-09-11T00:06:28.454Z,12.85
2022-09-11T00:09:03.769Z,12.86
2022-09-11T00:11:48.198Z,12.87
2022-09-11T00:14:22.758Z,12.88
2022-09-11T00:16:49.271Z,12.86
2022-09-11T00:19:18.865Z,12.83
2022-09-11T00:21:46.033Z,12.82
2022-09-11T00:24:12.802Z,12.79
2022-09-11T00:26:41.140Z,12.74
2022-09-11T00:29:10.097Z,12.70
2022-09-11T00:31:36.811Z,12.65
2022-09-11T00:34:03.433Z,12.61
2022-09-11T00:36:31.977Z,12.58
2022-09-11T00:38:59.299Z,12.54
2022-09-11T00:41:30.640Z,12.52
2022-09-11T00:44:29.424Z,12.53
2022-09-11T00:47:02.148Z,12.49
2022-09-11T00:49:34.311Z,12.49
2022-09-11T00:52:08.552Z,12.50
2022-09-11T00:54:45.491Z,12.50
2022-09-11T00:57:12.635Z,12.51
2022-09-11T00:59:42.186Z,12.50
2022-09-11T01:02:15.506Z,12.52
2022-09-11T01:04:41.997Z,12.55
2022-09-11T01:07:10.393Z,12.59
2022-09-11T01:09:39.370Z,12.60
2022-09-11T01:12:23.801Z,12.62
2022-09-11T01:15:24.654Z,12.62
2022-09-11T01:18:15.164Z,12.63
2022-09-11T01:21:20.577Z,12.61
2022-09-11T01:23:54.063Z,12.62
2022-09-11T01:26:45.102Z,12.64
2022-09-11T01:29:22.328Z,12.66
2022-09-11T01:32:06.608Z,12.67
2022-09-11T01:35:07.640Z,12.70
2022-09-11T01:37:52.258Z,12.68
2022-09-11T01:40:26.227Z,12.68
2022-09-11T01:43:01.551Z,12.64
2022-09-11T01:45:28.709Z,12.61
2022-09-11T01:47:56.364Z,12.59
2022-09-11T01:50:27.263Z,12.58
2022-09-11T01:53:02.100Z,12.51
2022-09-11T01:55:34.891Z,12.52
2022-09-11T01:58:09.260Z,12.55
2022-09-11T02:00:38.438Z,12.53
2022-09-11T02:03:18.147Z,12.55
2022-09-11T02:05:50.573Z,12.55
2022-09-11T02:08:28.143Z,12.55
2022-09-11T02:11:07.272Z,12.55
2022-09-11T02:13:59.111Z,12.55
2022-09-11T02:16:31.508Z,12.53
2022-09-11T02:19:04.808Z,12.51
2022-09-11T02:21:34.601Z,12.51
2022-09-11T02:24:02.113Z,12.55
2022-09-11T02:26:32.793Z,12.55
2022-09-11T02:28:59.454Z,12.57
2022-09-11T02:31:26.404Z,12.59
2022-09-11T02:33:52.923Z,12.61
2022-09-11T02:36:38.554Z,12.65
2022-09-11T02:39:13.751Z,12.67
2022-09-11T02:42:24.869Z,12.70
2022-09-11T02:45:06.167Z,12.72
2022-09-11T02:47:44.674Z,12.75
2022-09-11T02:50:38.865Z,12.78
2022-09-11T02:53:15.058Z,12.80
2022-09-11T02:55:56.674Z,12.83
2022-09-11T02:58:31.125Z,12.83
2022-09-11T03:01:02.459Z,12.85
2022-09-11T03:03:36.750Z,12.88
2022-09-11T03:06:03.512Z,12.90
2022-09-11T03:08:34.496Z,12.94
2022-09-11T03:11:01.125Z,12.96
2022-09-11T03:13:27.578Z,12.97
2022-09-11T03:15:54.439Z,12.98
2022-09-11T03:18:23.267Z,13.01
2022-09-11T03:20:49.964Z,13.01
2022-09-11T03:23:16.428Z,13.03
2022-09-11T03:25:45.436Z,13.08
2022-09-11T03:28:11.927Z,13.10
2022-09-11T03:30:41.490Z,13.10
2022-09-11T03:33:09.054Z,13.12
2022-09-11T03:35:35.638Z,13.12
2022-09-11T03:38:02.142Z,13.12
2022-09-11T03:40:28.842Z,13.11
2022-09-11T03:42:55.324Z,13.11
2022-09-11T03:45:21.858Z,13.13
2022-09-11T03:47:50.322Z,13.13
2022-09-11T03:50:16.969Z,13.14
2022-09-11T03:52:43.758Z,13.15
2022-09-11T03:55:11.076Z,13.13
2022-09-11T03:57:38.636Z,13.12
2022-09-11T04:00:10.213Z,13.11
2022-09-11T04:02:43.390Z,13.11
2022-09-11T04:05:10.689Z,13.10
2022-09-11T04:07:38.193Z,13.07
2022-09-11T04:10:05.202Z,13.06
2022-09-11T04:12:31.701Z,13.06
2022-09-11T04:14:58.252Z,13.04
2022-09-11T04:17:26.511Z,13.04
2022-09-11T04:19:53.625Z,13.02
2022-09-11T04:22:20.106Z,13.01
2022-09-11T04:24:47.143Z,12.99
2022-09-11T04:27:15.889Z,12.98
2022-09-11T04:29:43.092Z,12.98
2022-09-11T04:32:17.997Z,12.97
2022-09-11T04:34:44.688Z,13.00
2022-09-11T04:37:11.637Z,13.02
2022-09-11T04:39:38.380Z,13.03
2022-09-11T04:42:10.700Z,13.02
2022-09-11T04:44:37.360Z,12.99
2022-09-11T04:47:04.067Z,12.96
2022-09-11T04:49:32.397Z,12.94
2022-09-11T04:52:02.878Z,12.91
2022-09-11T04:54:29.394Z,12.87
2022-09-11T04:56:56.103Z,12.84
2022-09-11T04:59:24.023Z,12.80
2022-09-11T05:01:50.593Z,12.79
2022-09-11T05:04:25.326Z,12.77
2022-09-11T05:06:52.833Z,12.77
2022-09-11T05:09:19.441Z,12.77
2022-09-11T05:11:52.167Z,12.79
2022-09-11T05:14:18.655Z,12.79
2022-09-11T05:16:46.028Z,12.81
2022-09-11T05:19:12.743Z,12.83
2022-09-11T05:21:39.478Z,12.86
2022-09-11T05:24:06.413Z,12.90
2022-09-11T05:26:37.519Z,12.96
2022-09-11T05:29:10.422Z,13.03
2022-09-11T05:31:37.372Z,13.06
2022-09-11T05:34:04.595Z,13.10
2022-09-11T05:36:31.202Z,13.15
2022-09-11T05:38:58.721Z,13.16
2022-09-11T05:41:25.581Z,13.16
2022-09-11T05:43:52.517Z,13.16
2022-09-11T05:46:21.948Z,13.21
2022-09-11T05:48:48.569Z,13.22
2022-09-11T05:51:19.265Z,13.27
2022-09-11T05:53:55.692Z,13.85
2022-09-11T05:56:24.608Z,13.92
2022-09-11T05:58:53.303Z,13.96
2022-09-11T06:01:25.540Z,14.26
2022-09-11T06:03:52.835Z,14.88
2022-09-11T06:06:25.519Z,15.19
2022-09-11T06:08:53.215Z,15.58
2022-09-11T06:11:21.577Z,16.20
2022-09-11T06:13:53.193Z,16.93
2022-09-11T06:16:23.837Z,17.57
2022-09-11T06:18:52.375Z,17.91
2022-09-11T06:21:23.944Z,18.35
2022-09-11T06:23:52.456Z,18.94
2022-09-11T06:26:21.910Z,19.43
2022-09-11T06:28:49.045Z,19.99
2022-09-11T06:31:20.268Z,20.06
2022-09-11T06:33:51.181Z,20.18
2022-09-11T06:36:28.566Z,20.38
2022-09-11T06:38:58.281Z,20.93
2022-09-11T06:41:26.631Z,21.16
2022-09-11T06:43:55.590Z,21.65
2022-09-11T06:46:24.310Z,22.25
2022-09-11T06:48:51.902Z,22.64
2022-09-11T06:51:24.727Z,22.65
2022-09-11T06:53:56.244Z,22.24
2022-09-11T06:56:23.010Z,22.89
2022-09-11T06:58:50.497Z,23.01
2022-09-11T07:01:18.877Z,23.92
2022-09-11T07:03:47.889Z,24.72
2022-09-11T07:06:16.259Z,24.84
2022-09-11T07:08:46.365Z,25.18
2022-09-11T07:11:12.961Z,25.17
2022-09-11T07:13:40.157Z,25.41
2022-09-11T07:16:09.162Z,25.18
2022-09-11T07:18:37.776Z,25.46
2022-09-11T07:21:10.700Z,25.61
2022-09-11T07:23:37.765Z,25.92
2022-09-11T07:26:07.635Z,25.79
2022-09-11T07:28:36.505Z,26.02
2022-09-11T07:31:17.485Z,25.91
2022-09-11T07:33:48.996Z,25.95
2022-09-11T07:36:22.749Z,25.04
2022-09-11T07:38:56.766Z,25.45
2022-09-11T07:41:30.741Z,26.13
2022-09-11T07:44:03.720Z,26.48
2022-09-11T07:46:31.170Z,27.15
2022-09-11T07:49:02.991Z,26.99
2022-09-11T07:51:29.647Z,26.57
2022-09-11T07:53:57.988Z,26.85
2022-09-11T07:56:26.355Z,26.82
2022-09-11T07:58:55.070Z,26.54
2022-09-11T08:01:29.579Z,26.12
2022-09-11T08:04:02.304Z,26.49
2022-09-11T08:06:33.519Z,26.47
2022-09-11T08:09:02.784Z,26.32
2022-09-11T08:11:31.790Z,26.11
2022-09-11T08:14:00.081Z,25.66
2022-09-11T08:16:28.007Z,26.57
2022-09-11T08:18:55.385Z,26.35
2022-09-11T08:21:25.505Z,27.39
2022-09-11T08:23:52.135Z,28.27
2022-09-11T08:26:24.101Z,28.48
2022-09-11T08:28:54.606Z,27.89
2022-09-11T08:31:23.461Z,27.16
2022-09-11T08:33:50.106Z,27.66
2022-09-11T08:36:16.925Z,27.97
2022-09-11T08:38:44.388Z,28.54
2022-09-11T08:41:36.194Z,27.93
2022-09-11T08:44:17.226Z,26.55
2022-09-11T08:46:49.456Z,26.63
2022-09-11T08:49:15.909Z,27.03
2022-09-11T08:51:44.850Z,27.38
2022-09-11T08:54:30.837Z,27.24
2022-09-11T08:57:24.229Z,28.31
2022-09-11T09:00:02.682Z,28.02
2022-09-11T09:02:58.608Z,28.14
2022-09-11T09:05:31.749Z,27.94
2022-09-11T09:08:26.152Z,28.55
2022-09-11T09:11:19.478Z,28.97
2022-09-11T09:14:13.367Z,29.06
2022-09-11T09:17:06.414Z,29.11
2022-09-11T09:19:36.727Z,28.88
2022-09-11T09:22:36.727Z,28.10
2022-09-11T09:25:11.212Z,27.23
2022-09-11T09:27:48.520Z,28.14
2022-09-11T09:30:24.659Z,27.66
2022-09-11T09:33:25.953Z,27.76
2022-09-11T09:35:54.353Z,27.70
2022-09-11T09:38:28.695Z,27.41
2022-09-11T09:41:07.487Z,27.78
2022-09-11T09:44:25.757Z,28.58
2022-09-11T09:46:54.157Z,29.20
2022-09-11T09:49:29.201Z,29.64
2022-09-11T09:52:03.562Z,30.15
2022-09-11T09:54:34.323Z,30.29
2022-09-11T09:57:06.063Z,29.31
2022-09-11T09:59:39.937Z,28.60
2022-09-11T10:02:08.727Z,28.10
2022-09-11T10:04:35.411Z,27.54
2022-09-11T10:07:16.815Z,26.87
2022-09-11T10:09:51.585Z,26.87
2022-09-11T10:12:26.254Z,26.96
2022-09-11T10:14:58.299Z,25.54
2022-09-11T10:17:33.980Z,25.13
2022-09-11T10:20:19.731Z,26.26
2022-09-11T10:22:48.465Z,27.21
2022-09-11T10:25:17.083Z,27.97
2022-09-11T10:27:52.971Z,28.37
2022-09-11T10:30:26.986Z,28.59
2022-09-11T10:33:03.582Z,29.21
2022-09-11T10:35:33.316Z,29.83
2022-09-11T10:38:18.031Z,28.46
2022-09-11T10:41:13.005Z,28.69
2022-09-11T10:44:09.581Z,27.51
2022-09-11T10:46:41.980Z,28.12
2022-09-11T10:49:16.680Z,28.35
2022-09-11T10:51:59.395Z,28.20
2022-09-11T10:54:33.583Z,28.51
2022-09-11T10:57:06.279Z,27.95
2022-09-11T10:59:41.735Z,28.16
2022-09-11T11:02:15.914Z,28.16
2022-09-11T11:04:48.592Z,28.13
2022-09-11T11:07:36.458Z,28.93
2022-09-11T11:10:21.452Z,28.85
2022-09-11T11:13:15.801Z,29.52
2022-09-11T11:15:49.804Z,29.84
2022-09-11T11:18:47.903Z,29.61
2022-09-11T11:21:54.873Z,29.52
2022-09-11T11:24:39.922Z,29.76
2022-09-11T11:27:18.193Z,30.06
2022-09-11T11:30:00.612Z,30.44
2022-09-11T11:32:50.509Z,30.44
2022-09-11T11:35:24.368Z,30.58
2022-09-11T11:37:57.803Z,30.77
2022-09-11T11:40:47.136Z,30.72
2022-09-11T11:43:21.178Z,30.50
2022-09-11T11:45:53.412Z,30.35
2022-09-11T11:48:33.284Z,29.73
2022-09-11T11:51:06.329Z,28.98
2022-09-11T11:57:01.599Z,28.83
2022-09-11T11:59:44.201Z,28.90
2022-09-11T12:02:12.441Z,29.25
2022-09-11T12:04:48.791Z,29.13
2022-09-11T12:07:33.731Z,28.78
2022-09-11T12:10:02.951Z,27.95
2022-09-11T12:12:33.893Z,28.02
2022-09-11T12:15:10.121Z,28.08
2022-09-11T12:17:39.835Z,27.82
2022-09-11T12:20:14.347Z,28.38
2022-09-11T12:22:46.883Z,28.56
2022-09-11T12:25:19.463Z,28.79
2022-09-11T12:27:55.919Z,28.78
2022-09-11T12:30:28.124Z,28.90
2022-09-11T12:32:58.164Z,29.19
2022-09-11T12:35:43.135Z,29.61
2022-09-11T12:38:09.564Z,29.38
2022-09-11T12:40:41.513Z,29.51
2022-09-11T12:43:36.854Z,28.61
2022-09-11T12:46:12.190Z,28.09
2022-09-11T12:48:56.218Z,28.60
2022-09-11T12:51:35.260Z,28.45
2022-09-11T12:54:23.526Z,28.89
2022-09-11T12:57:02.178Z,28.83
2022-09-11T12:59:45.469Z,28.48
2022-09-11T13:02:40.154Z,27.83
2022-09-11T13:05:19.904Z,27.50
2022-09-11T13:07:50.817Z,27.37
2022-09-11T13:10:35.382Z,27.51
2022-09-11T13:13:03.714Z,27.17
2022-09-11T13:15:34.513Z,27.35
2022-09-11T13:18:01.304Z,27.80
2022-09-11T13:20:27.997Z,28.05
2022-09-11T13:23:13.195Z,28.34
2022-09-11T13:25:41.024Z,27.99
2022-09-11T13:28:07.805Z,28.26
2022-09-11T13:30:36.720Z,28.03
2022-09-11T13:33:08.626Z,27.90
2022-09-11T13:35:41.630Z,27.83
2022-09-11T13:38:18.480Z,27.79
2022-09-11T13:40:54.367Z,27.73
2022-09-11T13:43:35.972Z,27.66
2022-09-11T13:46:13.527Z,27.33
2022-09-11T13:48:40.061Z,27.48
2022-09-11T13:51:11.378Z,27.48
2022-09-11T13:53:41.595Z,27.50
2022-09-11T13:56:37.285Z,27.85
2022-09-11T13:59:25.503Z,28.27
2022-09-11T14:01:55.970Z,27.82
2022-09-11T14:04:22.587Z,27.34
2022-09-11T14:06:51.262Z,27.21
2022-09-11T14:09:20.750Z,27.33
2022-09-11T14:11:47.983Z,27.19
2022-09-11T14:14:24.005Z,27.20
2022-09-11T14:16:56.042Z,27.20
2022-09-11T14:19:30.438Z,26.96
2022-09-11T14:21:58.198Z,26.95
2022-09-11T14:24:29.731Z,27.13
2022-09-11T14:27:02.593Z,27.24
2022-09-11T14:29:31.583Z,27.56
2022-09-11T14:32:35.503Z,27.07
2022-09-11T14:35:03.089Z,27.20
2022-09-11T14:37:34.635Z,27.15
2022-09-11T14:40:08.501Z,27.10
2022-09-11T14:42:36.923Z,27.14
2022-09-11T14:45:11.364Z,27.14
2022-09-11T14:47:39.047Z,26.87
2022-09-11T14:50:06.854Z,26.90
2022-09-11T14:52:35.115Z,27.02
2022-09-11T14:55:02.255Z,26.92
2022-09-11T14:57:33.295Z,26.82
2022-09-11T15:00:00.084Z,26.59
2022-09-11T15:02:28.920Z,26.57
2022-09-11T15:04:57.702Z,26.34
2022-09-11T15:07:27.051Z,26.44
2022-09-11T15:09:54.805Z,26.66
2022-09-11T15:12:22.378Z,26.69
2022-09-11T15:14:59.054Z,26.35
2022-09-11T15:17:31.423Z,26.42
2022-09-11T15:20:00.869Z,26.47
2022-09-11T15:22:27.813Z,26.85
2022-09-11T15:24:56.599Z,26.75
2022-09-11T15:27:29.482Z,26.38
2022-09-11T15:29:56.126Z,26.04
2022-09-11T15:32:22.966Z,25.82
2022-09-11T15:34:49.480Z,25.97
2022-09-11T15:37:18.655Z,26.04
2022-09-11T15:39:45.310Z,26.05
2022-09-11T15:42:12.576Z,26.05
2022-09-11T15:44:39.145Z,25.90
2022-09-11T15:47:06.234Z,25.66
2022-09-11T15:49:41.591Z,25.61
2022-09-11T15:52:10.366Z,25.54
2022-09-11T15:54:37.175Z,25.44
2022-09-11T15:57:03.866Z,25.37
2022-09-11T15:59:30.417Z,25.87
2022-09-11T16:01:57.039Z,25.33
2022-09-11T16:04:28.218Z,25.11
2022-09-11T16:06:55.389Z,24.74
2022-09-11T16:09:24.409Z,24.65
2022-09-11T16:11:51.879Z,24.50
2022-09-11T16:14:27.248Z,24.25
2022-09-11T16:17:05.243Z,24.24
2022-09-11T16:19:33.028Z,24.20
2022-09-11T16:22:01.828Z,23.95
2022-09-11T16:24:30.764Z,23.72
2022-09-11T16:26:57.570Z,23.33
2022-09-11T16:29:44.074Z,23.22
2022-09-11T16:32:29.584Z,23.00
2022-09-11T16:34:57.242Z,22.89
2022-09-11T16:37:24.092Z,22.77
2022-09-11T16:39:51.265Z,22.50
2022-09-11T16:42:21.131Z,22.39
2022-09-11T16:44:48.572Z,22.33
2022-09-11T16:47:22.323Z,22.25
2022-09-11T16:50:07.413Z,22.11
2022-09-11T16:52:36.692Z,22.08
2022-09-11T16:55:04.648Z,21.99
2022-09-11T16:57:34.494Z,21.92
2022-09-11T17:00:02.848Z,21.86
2022-09-11T17:02:29.446Z,21.83
2022-09-11T17:04:56.205Z,21.77
2022-09-11T17:07:23.806Z,21.70
2022-09-11T17:09:50.333Z,21.62
2022-09-11T17:12:19.390Z,21.42
2022-09-11T17:14:45.989Z,21.29
2022-09-11T17:17:12.601Z,21.20
2022-09-11T17:19:39.398Z,21.16
2022-09-11T17:22:09.363Z,21.00
2022-09-11T17:24:36.463Z,20.91
2022-09-11T17:27:03.028Z,20.74
2022-09-11T17:29:31.546Z,20.62
2022-09-11T17:32:23.680Z,20.41
2022-09-11T17:34:44.644Z,20.16
2022-09-11T17:37:11.125Z,19.99
2022-09-11T17:39:37.777Z,19.77
2022-09-11T17:42:13.226Z,19.57
2022-09-11T17:44:41.476Z,19.37
2022-09-11T17:47:11.564Z,19.18
2022-09-11T17:49:44.895Z,19.00
2022-09-11T17:52:13.982Z,18.78
2022-09-11T17:54:40.481Z,18.60
2022-09-11T17:57:08.726Z,18.44
2022-09-11T17:59:36.732Z,18.27
2022-09-11T18:02:03.321Z,18.14
2022-09-11T18:04:30.339Z,18.00
2022-09-11T18:06:56.954Z,17.89
2022-09-11T18:09:23.449Z,17.78
2022-09-11T18:11:55.793Z,17.68
2022-09-11T18:14:22.958Z,17.60
2022-09-11T18:16:49.452Z,17.49
2022-09-11T18:19:24.551Z,17.42
2022-09-11T18:21:51.287Z,17.33
2022-09-11T18:24:20.064Z,17.24
2022-09-11T18:26:51.335Z,17.15
2022-09-11T18:29:20.239Z,17.08
2022-09-11T18:31:50.129Z,16.99
2022-09-11T18:34:22.882Z,16.92
2022-09-11T18:36:49.536Z,16.82
2022-09-11T18:39:17.965Z,16.75
2022-09-11T18:41:46.866Z,16.70
2022-09-11T18:44:19.425Z,16.65
2022-09-11T18:46:51.802Z,16.60
2022-09-11T18:49:18.640Z,16.55
2022-09-11T18:51:45.226Z,16.54
2022-09-11T18:54:15.132Z,16.47
2022-09-11T18:56:42.774Z,16.42
2022-09-11T18:59:10.368Z,16.29
2022-09-11T19:01:39.329Z,16.26
2022-09-11T19:04:08.434Z,16.17
2022-09-11T19:06:34.937Z,16.09
2022-09-11T19:09:03.581Z,16.07
2022-09-11T19:11:30.213Z,16.05
2022-09-11T19:14:02.725Z,15.99
2022-09-11T19:16:34.254Z,15.95
2022-09-11T19:19:01.031Z,15.89
2022-09-11T19:21:27.770Z,15.85
2022-09-11T19:24:02.389Z,15.78
2022-09-11T19:26:32.231Z,15.73
2022-09-11T19:29:11.609Z,15.68
2022-09-11T19:31:42.456Z,15.62
2022-09-11T19:34:13.554Z,15.63
2022-09-11T19:36:41.386Z,15.57
2022-09-11T19:39:07.917Z,15.53
2022-09-11T19:41:37.646Z,15.46
2022-09-11T19:44:06.578Z,15.43
2022-09-11T19:46:38.080Z,15.43
2022-09-11T19:49:06.441Z,15.41
2022-09-11T19:51:36.280Z,15.39
2022-09-11T19:54:09.256Z,15.34
2022-09-11T19:56:39.399Z,15.28
2022-09-11T19:59:07.372Z,15.26
2022-09-11T20:01:34.543Z,15.23
2022-09-11T20:04:07.350Z,15.19
2022-09-11T20:06:35.116Z,15.17
2022-09-11T20:11:51.352Z,15.06
2022-09-11T20:14:17.910Z,14.98
2022-09-11T20:16:44.737Z,14.93
2022-09-11T20:19:16.542Z,14.85
2022-09-11T20:21:43.374Z,14.77
2022-09-11T20:24:10.068Z,14.73
2022-09-11T20:26:39.759Z,14.72
2022-09-11T20:29:08.989Z,14.67
2022-09-11T20:31:48.177Z,14.60
2022-09-11T20:34:18.206Z,14.58
2022-09-11T20:36:47.355Z,14.51
2022-09-11T20:39:15.260Z,14.46
2022-09-11T20:41:42.220Z,14.41
2022-09-11T20:44:09.786Z,14.38
2022-09-11T20:46:36.604Z,14.30
2022-09-11T20:49:04.847Z,14.22
2022-09-11T20:51:32.735Z,14.19
2022-09-11T20:54:00.520Z,14.15
2022-09-11T20:56:29.972Z,14.10
2022-09-11T20:59:00.048Z,14.06
2022-09-11T21:01:32.595Z,14.01
2022-09-11T21:04:01.209Z,13.96
2022-09-11T21:06:30.829Z,13.91
2022-09-11T21:09:04.007Z,13.87
2022-09-11T21:11:31.208Z,13.84
2022-09-11T21:13:57.952Z,13.75
2022-09-11T21:16:26.504Z,13.74
2022-09-11T21:18:56.001Z,13.69
2022-09-11T21:21:25.235Z,13.63
2022-09-11T21:24:01.682Z,13.56
2022-09-11T21:26:29.320Z,13.57
2022-09-11T21:28:57.104Z,13.48
2022-09-11T21:31:26.382Z,13.37
2022-09-11T21:33:53.291Z,13.28
2022-09-11T21:36:20.054Z,13.20
2022-09-11T21:38:48.329Z,13.19
2022-09-11T21:41:15.285Z,13.17
2022-09-11T21:43:42.145Z,13.12
2022-09-11T21:46:11.373Z,13.08
2022-09-11T21:48:40.769Z,13.04
2022-09-11T21:51:11.803Z,13.06
2022-09-11T21:53:48.097Z,13.02
2022-09-11T21:56:26.352Z,13.00
2022-09-11T21:58:57.878Z,12.95
2022-09-11T22:01:26.470Z,12.90
2022-09-11T22:03:54.328Z,12.83
2022-09-11T22:06:23.920Z,12.81
2022-09-11T22:08:51.102Z,12.80
2022-09-11T22:11:17.598Z,12.77
2022-09-11T22:13:46.501Z,12.75
2022-09-11T22:16:17.478Z,12.69
2022-09-11T22:18:49.679Z,12.69
2022-09-11T22:21:18.528Z,12.69
2022-09-11T22:23:45.208Z,12.65
2022-09-11T22:26:15.635Z,12.61
2022-09-11T22:28:43.609Z,12.58
2022-09-11T22:31:15.238Z,12.56
2022-09-11T22:33:47.407Z,12.55
2022-09-11T22:36:17.653Z,12.53
2022-09-11T22:38:44.164Z,12.54
2022-09-11T22:41:12.493Z,12.48
2022-09-11T22:43:39.055Z,12.43
2022-09-11T22:46:08.416Z,12.35
2022-09-11T22:48:35.940Z,12.20
2022-09-11T22:51:02.486Z,12.17
2022-09-11T22:53:29.328Z,12.17
2022-09-11T22:56:00.561Z,12.13
2022-09-11T22:58:29.062Z,12.11
2022-09-11T23:00:56.363Z,12.12
2022-09-11T23:03:25.384Z,12.09
2022-09-11T23:06:17.491Z,12.08
2022-09-11T23:08:47.566Z,12.06
2022-09-11T23:11:19.700Z,12.01
2022-09-11T23:13:48.649Z,12.01
2022-09-11T23:16:25.021Z,11.98
2022-09-11T23:18:58.545Z,11.88
2022-09-11T23:21:25.775Z,11.78
2022-09-11T23:23:54.792Z,11.70
2022-09-11T23:26:24.480Z,11.63
2022-09-11T23:28:51.786Z,11.60
2022-09-11T23:31:21.146Z,11.58
2022-09-11T23:33:50.316Z,11.53
2022-09-11T23:36:16.968Z,11.53
2022-09-11T23:38:45.494Z,11.49
2022-09-11T23:41:12.574Z,11.47
2022-09-11T23:43:39.268Z,11.43
2022-09-11T23:46:05.903Z,11.42
2022-09-11T23:48:40.299Z,11.31
2022-09-11T23:51:08.650Z,11.28
2022-09-11T23:53:35.340Z,11.25
2022-09-11T23:56:02.151Z,11.25
2022-09-11T23:58:28.633Z,11.27
